sensor_id;sensor_type;location;lat;lon;timestamp;temperature;humidity
11925;DHT22;6022;48.768;18.608;2024-02-26T00:01:17;5.80;99.90
11925;DHT22;6022;48.768;18.608;2024-02-26T00:03:47;5.80;99.90
11925;DHT22;6022;48.768;18.608;2024-02-26T00:06:18;5.90;99.90
11925;DHT22;6022;48.768;18.608;2024-02-26T00:08:49;5.90;99.90
11925;DHT22;6022;48.768;18.608;2024-02-26T00:11:21;5.80;99.90
11925;DHT22;6022;48.768;18.608;2024-02-26T00:13:50;5.90;99.90
11925;DHT22;6022;48.768;18.608;2024-02-26T00:16:21;5.70;99.90
11925;DHT22;6022;48.768;18.608;2024-02-26T00:18:50;5.80;99.90
11925;DHT22;6022;48.768;18.608;2024-02-26T00:21:18;5.80;99.90
11925;DHT22;6022;48.768;18.608;2024-02-26T00:23:53;5.70;99.90
11925;DHT22;6022;48.768;18.608;2024-02-26T00:26:23;5.80;99.90
11925;DHT22;6022;48.768;18.608;2024-02-26T00:28:53;5.80;99.90
11925;DHT22;6022;48.768;18.608;2024-02-26T00:31:22;5.80;99.90
11925;DHT22;6022;48.768;18.608;2024-02-26T00:33:51;5.80;99.90
11925;DHT22;6022;48.768;18.608;2024-02-26T00:36:26;5.80;99.90
11925;DHT22;6022;48.768;18.608;2024-02-26T00:38:54;5.80;99.90
11925;DHT22;6022;48.768;18.608;2024-02-26T00:41:25;5.70;99.90
11925;DHT22;6022;48.768;18.608;2024-02-26T00:43:55;5.70;99.90
11925;DHT22;6022;48.768;18.608;2024-02-26T00:46:24;5.90;99.90
11925;DHT22;6022;48.768;18.608;2024-02-26T00:48:54;5.70;99.90
11925;DHT22;6022;48.768;18.608;2024-02-26T00:51:23;5.90;99.90
11925;DHT22;6022;48.768;18.608;2024-02-26T00:53:53;5.60;99.90
11925;DHT22;6022;48.768;18.608;2024-02-26T00:56:25;5.80;99.90
11925;DHT22;6022;48.768;18.608;2024-02-26T00:58:54;5.50;99.90
11925;DHT22;6022;48.768;18.608;2024-02-26T01:01:23;5.40;99.90
11925;DHT22;6022;48.768;18.608;2024-02-26T01:03:53;5.50;99.90
11925;DHT22;6022;48.768;18.608;2024-02-26T01:06:21;5.40;99.90
11925;DHT22;6022;48.768;18.608;2024-02-26T01:08:52;5.40;99.90
11925;DHT22;6022;48.768;18.608;2024-02-26T01:11:21;5.50;99.90
11925;DHT22;6022;48.768;18.608;2024-02-26T01:13:52;5.70;99.90
11925;DHT22;6022;48.768;18.608;2024-02-26T01:16:24;5.40;99.90
11925;DHT22;6022;48.768;18.608;2024-02-26T01:18:56;5.20;99.90
11925;DHT22;6022;48.768;18.608;2024-02-26T01:21:25;5.40;99.90
11925;DHT22;6022;48.768;18.608;2024-02-26T01:23:57;5.40;99.90
11925;DHT22;6022;48.768;18.608;2024-02-26T01:26:26;5.40;99.90
11925;DHT22;6022;48.768;18.608;2024-02-26T01:28:54;5.40;99.90
11925;DHT22;6022;48.768;18.608;2024-02-26T01:31:23;5.20;99.90
11925;DHT22;6022;48.768;18.608;2024-02-26T01:33:53;5.40;99.90
11925;DHT22;6022;48.768;18.608;2024-02-26T01:36:24;5.40;99.90
11925;DHT22;6022;48.768;18.608;2024-02-26T01:38:55;5.50;99.90
11925;DHT22;6022;48.768;18.608;2024-02-26T01:41:26;5.20;99.90
11925;DHT22;6022;48.768;18.608;2024-02-26T01:43:54;5.60;99.90
11925;DHT22;6022;48.768;18.608;2024-02-26T01:46:23;5.20;99.90
11925;DHT22;6022;48.768;18.608;2024-02-26T01:48:51;5.20;99.90
11925;DHT22;6022;48.768;18.608;2024-02-26T01:51:20;5.20;99.90
11925;DHT22;6022;48.768;18.608;2024-02-26T01:53:48;5.20;99.90
11925;DHT22;6022;48.768;18.608;2024-02-26T01:56:17;5.20;99.90
11925;DHT22;6022;48.768;18.608;2024-02-26T01:58:48;5.20;99.90
11925;DHT22;6022;48.768;18.608;2024-02-26T02:01:18;5.20;99.90
11925;DHT22;6022;48.768;18.608;2024-02-26T02:03:50;5.20;99.90
11925;DHT22;6022;48.768;18.608;2024-02-26T02:06:19;5.10;99.90
11925;DHT22;6022;48.768;18.608;2024-02-26T02:08:49;5.10;99.90
11925;DHT22;6022;48.768;18.608;2024-02-26T02:11:17;5.10;99.90
11925;DHT22;6022;48.768;18.608;2024-02-26T02:13:47;5.10;99.90
11925;DHT22;6022;48.768;18.608;2024-02-26T02:16:16;5.10;99.90
11925;DHT22;6022;48.768;18.608;2024-02-26T02:18:44;5.00;99.90
11925;DHT22;6022;48.768;18.608;2024-02-26T02:21:12;4.70;99.90
11925;DHT22;6022;48.768;18.608;2024-02-26T02:23:43;4.80;99.90
11925;DHT22;6022;48.768;18.608;2024-02-26T02:26:14;4.40;99.90
11925;DHT22;6022;48.768;18.608;2024-02-26T02:28:43;4.80;99.90
11925;DHT22;6022;48.768;18.608;2024-02-26T02:31:13;4.80;99.90
11925;DHT22;6022;48.768;18.608;2024-02-26T02:33:42;4.70;99.90
11925;DHT22;6022;48.768;18.608;2024-02-26T02:36:11;4.90;99.90
11925;DHT22;6022;48.768;18.608;2024-02-26T02:38:49;4.80;99.90
11925;DHT22;6022;48.768;18.608;2024-02-26T02:41:19;4.80;99.90
11925;DHT22;6022;48.768;18.608;2024-02-26T02:43:48;5.00;99.90
11925;DHT22;6022;48.768;18.608;2024-02-26T02:46:16;5.10;99.90
11925;DHT22;6022;48.768;18.608;2024-02-26T02:48:48;4.70;99.90
11925;DHT22;6022;48.768;18.608;2024-02-26T02:51:18;4.60;99.90
11925;DHT22;6022;48.768;18.608;2024-02-26T02:53:49;4.90;99.90
11925;DHT22;6022;48.768;18.608;2024-02-26T02:56:17;4.60;99.90
11925;DHT22;6022;48.768;18.608;2024-02-26T02:58:47;4.50;99.90
11925;DHT22;6022;48.768;18.608;2024-02-26T03:04:13;5.10;99.90
11925;DHT22;6022;48.768;18.608;2024-02-26T03:06:44;4.70;99.90
11925;DHT22;6022;48.768;18.608;2024-02-26T03:09:15;4.90;99.90
11925;DHT22;6022;48.768;18.608;2024-02-26T03:11:46;4.60;99.90
11925;DHT22;6022;48.768;18.608;2024-02-26T03:14:27;5.00;99.90
11925;DHT22;6022;48.768;18.608;2024-02-26T03:16:57;5.00;99.90
11925;DHT22;6022;48.768;18.608;2024-02-26T03:19:27;4.80;99.90
11925;DHT22;6022;48.768;18.608;2024-02-26T03:21:56;4.80;99.90
11925;DHT22;6022;48.768;18.608;2024-02-26T03:24:28;4.90;99.90
11925;DHT22;6022;48.768;18.608;2024-02-26T03:27:01;4.70;99.90
11925;DHT22;6022;48.768;18.608;2024-02-26T03:29:32;4.40;99.90
11925;DHT22;6022;48.768;18.608;2024-02-26T03:32:00;4.70;99.90
11925;DHT22;6022;48.768;18.608;2024-02-26T03:34:30;4.80;99.90
11925;DHT22;6022;48.768;18.608;2024-02-26T03:37:02;4.50;99.90
11925;DHT22;6022;48.768;18.608;2024-02-26T03:39:30;4.80;99.90
11925;DHT22;6022;48.768;18.608;2024-02-26T03:41:59;4.90;99.90
11925;DHT22;6022;48.768;18.608;2024-02-26T03:44:27;4.80;99.90
11925;DHT22;6022;48.768;18.608;2024-02-26T03:46:55;4.70;99.90
11925;DHT22;6022;48.768;18.608;2024-02-26T03:49:31;4.80;99.90
11925;DHT22;6022;48.768;18.608;2024-02-26T03:52:00;4.80;99.90
11925;DHT22;6022;48.768;18.608;2024-02-26T03:54:28;4.50;99.90
11925;DHT22;6022;48.768;18.608;2024-02-26T03:56:58;4.20;99.90
11925;DHT22;6022;48.768;18.608;2024-02-26T03:59:27;4.30;99.90
11925;DHT22;6022;48.768;18.608;2024-02-26T04:02:16;4.40;99.90
11925;DHT22;6022;48.768;18.608;2024-02-26T04:05:32;4.40;99.90
11925;DHT22;6022;48.768;18.608;2024-02-26T04:08:00;4.30;99.90
11925;DHT22;6022;48.768;18.608;2024-02-26T04:10:33;4.00;99.90
11925;DHT22;6022;48.768;18.608;2024-02-26T04:13:08;4.20;99.90
11925;DHT22;6022;48.768;18.608;2024-02-26T04:15:46;4.20;99.90
11925;DHT22;6022;48.768;18.608;2024-02-26T04:18:14;4.20;99.90
11925;DHT22;6022;48.768;18.608;2024-02-26T04:20:43;4.30;99.90
11925;DHT22;6022;48.768;18.608;2024-02-26T04:23:16;4.30;99.90
11925;DHT22;6022;48.768;18.608;2024-02-26T04:25:48;4.20;99.90
11925;DHT22;6022;48.768;18.608;2024-02-26T04:28:17;4.30;99.90
11925;DHT22;6022;48.768;18.608;2024-02-26T04:30:45;4.10;99.90
11925;DHT22;6022;48.768;18.608;2024-02-26T04:33:13;4.30;99.90
11925;DHT22;6022;48.768;18.608;2024-02-26T04:35:42;4.30;99.90
11925;DHT22;6022;48.768;18.608;2024-02-26T04:38:14;4.30;99.90
11925;DHT22;6022;48.768;18.608;2024-02-26T04:40:48;4.20;99.90
11925;DHT22;6022;48.768;18.608;2024-02-26T04:43:17;3.80;99.90
11925;DHT22;6022;48.768;18.608;2024-02-26T04:45:46;4.20;99.90
11925;DHT22;6022;48.768;18.608;2024-02-26T04:48:16;4.00;99.90
11925;DHT22;6022;48.768;18.608;2024-02-26T04:50:45;4.00;99.90
11925;DHT22;6022;48.768;18.608;2024-02-26T04:53:13;4.10;99.90
11925;DHT22;6022;48.768;18.608;2024-02-26T04:55:42;4.30;99.90
11925;DHT22;6022;48.768;18.608;2024-02-26T04:58:10;4.10;99.90
11925;DHT22;6022;48.768;18.608;2024-02-26T05:00:39;4.30;99.90
11925;DHT22;6022;48.768;18.608;2024-02-26T05:03:16;4.10;99.90
11925;DHT22;6022;48.768;18.608;2024-02-26T05:05:45;4.00;99.90
11925;DHT22;6022;48.768;18.608;2024-02-26T05:08:16;4.30;99.90
11925;DHT22;6022;48.768;18.608;2024-02-26T05:10:45;4.10;99.90
11925;DHT22;6022;48.768;18.608;2024-02-26T05:13:17;4.30;99.90
11925;DHT22;6022;48.768;18.608;2024-02-26T05:15:45;4.20;99.90
11925;DHT22;6022;48.768;18.608;2024-02-26T05:18:19;4.30;99.90
11925;DHT22;6022;48.768;18.608;2024-02-26T05:20:48;4.30;99.90
11925;DHT22;6022;48.768;18.608;2024-02-26T05:23:19;4.30;99.90
11925;DHT22;6022;48.768;18.608;2024-02-26T05:25:50;4.40;99.90
11925;DHT22;6022;48.768;18.608;2024-02-26T05:28:39;4.40;99.90
11925;DHT22;6022;48.768;18.608;2024-02-26T05:32:06;4.90;99.90
11925;DHT22;6022;48.768;18.608;2024-02-26T05:34:35;4.50;99.90
11925;DHT22;6022;48.768;18.608;2024-02-26T05:37:07;4.70;99.90
11925;DHT22;6022;48.768;18.608;2024-02-26T05:39:37;4.70;99.90
11925;DHT22;6022;48.768;18.608;2024-02-26T05:42:09;4.70;99.90
11925;DHT22;6022;48.768;18.608;2024-02-26T05:44:47;4.40;99.90
11925;DHT22;6022;48.768;18.608;2024-02-26T05:47:25;4.60;99.90
11925;DHT22;6022;48.768;18.608;2024-02-26T05:49:59;4.70;99.90
11925;DHT22;6022;48.768;18.608;2024-02-26T05:52:28;5.00;99.90
11925;DHT22;6022;48.768;18.608;2024-02-26T05:55:00;4.90;99.90
11925;DHT22;6022;48.768;18.608;2024-02-26T05:57:33;5.10;99.90
11925;DHT22;6022;48.768;18.608;2024-02-26T06:00:04;5.10;99.90
11925;DHT22;6022;48.768;18.608;2024-02-26T06:03:02;5.20;99.90
11925;DHT22;6022;48.768;18.608;2024-02-26T06:05:40;5.30;99.90
11925;DHT22;6022;48.768;18.608;2024-02-26T06:08:21;5.00;99.90
11925;DHT22;6022;48.768;18.608;2024-02-26T06:10:53;5.40;99.90
11925;DHT22;6022;48.768;18.608;2024-02-26T06:13:23;5.20;99.90
11925;DHT22;6022;48.768;18.608;2024-02-26T06:16:24;5.40;99.90
11925;DHT22;6022;48.768;18.608;2024-02-26T06:18:53;5.40;99.90
11925;DHT22;6022;48.768;18.608;2024-02-26T06:21:21;5.50;99.90
11925;DHT22;6022;48.768;18.608;2024-02-26T06:23:50;5.30;99.90
11925;DHT22;6022;48.768;18.608;2024-02-26T06:26:18;5.50;99.90
11925;DHT22;6022;48.768;18.608;2024-02-26T06:29:04;5.70;99.90
11925;DHT22;6022;48.768;18.608;2024-02-26T06:31:45;6.10;99.90
11925;DHT22;6022;48.768;18.608;2024-02-26T06:34:24;6.00;99.90
11925;DHT22;6022;48.768;18.608;2024-02-26T06:38:07;6.00;99.90
11925;DHT22;6022;48.768;18.608;2024-02-26T06:41:03;6.10;99.90
11925;DHT22;6022;48.768;18.608;2024-02-26T06:43:38;6.20;99.90
11925;DHT22;6022;48.768;18.608;2024-02-26T06:46:09;6.00;99.90
11925;DHT22;6022;48.768;18.608;2024-02-26T06:48:39;6.10;99.90
11925;DHT22;6022;48.768;18.608;2024-02-26T06:51:14;6.10;99.90
11925;DHT22;6022;48.768;18.608;2024-02-26T06:53:45;6.30;99.90
11925;DHT22;6022;48.768;18.608;2024-02-26T06:56:14;6.20;99.90
11925;DHT22;6022;48.768;18.608;2024-02-26T06:58:47;6.70;99.90
11925;DHT22;6022;48.768;18.608;2024-02-26T07:01:15;6.70;99.90
11925;DHT22;6022;48.768;18.608;2024-02-26T07:03:49;6.60;99.90
11925;DHT22;6022;48.768;18.608;2024-02-26T07:06:17;6.60;99.90
11925;DHT22;6022;48.768;18.608;2024-02-26T07:08:46;6.70;99.90
11925;DHT22;6022;48.768;18.608;2024-02-26T07:11:16;6.70;99.90
11925;DHT22;6022;48.768;18.608;2024-02-26T07:13:50;6.90;99.90
11925;DHT22;6022;48.768;18.608;2024-02-26T07:16:24;7.20;99.90
11925;DHT22;6022;48.768;18.608;2024-02-26T07:19:01;7.40;99.90
11925;DHT22;6022;48.768;18.608;2024-02-26T07:21:32;7.90;99.90
11925;DHT22;6022;48.768;18.608;2024-02-26T07:24:04;8.00;99.90
11925;DHT22;6022;48.768;18.608;2024-02-26T07:26:33;8.50;99.90
11925;DHT22;6022;48.768;18.608;2024-02-26T07:29:06;8.50;99.90
11925;DHT22;6022;48.768;18.608;2024-02-26T07:31:38;8.40;99.90
11925;DHT22;6022;48.768;18.608;2024-02-26T07:34:09;8.40;99.90
11925;DHT22;6022;48.768;18.608;2024-02-26T07:36:40;8.80;99.90
11925;DHT22;6022;48.768;18.608;2024-02-26T07:39:10;8.80;99.90
11925;DHT22;6022;48.768;18.608;2024-02-26T07:41:44;8.90;99.90
11925;DHT22;6022;48.768;18.608;2024-02-26T07:44:18;8.90;99.90
11925;DHT22;6022;48.768;18.608;2024-02-26T07:46:51;9.20;99.90
11925;DHT22;6022;48.768;18.608;2024-02-26T07:49:20;9.10;99.90
11925;DHT22;6022;48.768;18.608;2024-02-26T07:51:49;9.40;99.90
11925;DHT22;6022;48.768;18.608;2024-02-26T07:54:31;9.50;99.90
11925;DHT22;6022;48.768;18.608;2024-02-26T07:57:07;9.40;99.90
11925;DHT22;6022;48.768;18.608;2024-02-26T07:59:51;9.40;99.90
11925;DHT22;6022;48.768;18.608;2024-02-26T08:02:23;9.80;99.90
11925;DHT22;6022;48.768;18.608;2024-02-26T08:04:52;10.00;99.90
11925;DHT22;6022;48.768;18.608;2024-02-26T08:07:24;9.90;99.90
11925;DHT22;6022;48.768;18.608;2024-02-26T08:09:52;9.80;99.90
11925;DHT22;6022;48.768;18.608;2024-02-26T08:12:20;9.90;99.90
11925;DHT22;6022;48.768;18.608;2024-02-26T08:14:49;9.70;99.90
11925;DHT22;6022;48.768;18.608;2024-02-26T08:17:20;10.00;99.90
11925;DHT22;6022;48.768;18.608;2024-02-26T08:19:49;9.90;99.90
11925;DHT22;6022;48.768;18.608;2024-02-26T08:22:20;10.10;99.90
11925;DHT22;6022;48.768;18.608;2024-02-26T08:24:48;10.10;99.90
11925;DHT22;6022;48.768;18.608;2024-02-26T08:27:20;10.10;99.90
11925;DHT22;6022;48.768;18.608;2024-02-26T08:29:51;10.10;99.90
11925;DHT22;6022;48.768;18.608;2024-02-26T08:32:30;10.00;99.90
11925;DHT22;6022;48.768;18.608;2024-02-26T08:35:00;9.80;99.90
11925;DHT22;6022;48.768;18.608;2024-02-26T08:37:34;10.30;99.90
11925;DHT22;6022;48.768;18.608;2024-02-26T08:40:06;10.20;99.90
11925;DHT22;6022;48.768;18.608;2024-02-26T08:42:38;10.90;99.90
11925;DHT22;6022;48.768;18.608;2024-02-26T08:45:08;10.70;99.90
11925;DHT22;6022;48.768;18.608;2024-02-26T08:47:37;11.30;99.90
11925;DHT22;6022;48.768;18.608;2024-02-26T08:50:10;11.40;99.90
11925;DHT22;6022;48.768;18.608;2024-02-26T08:52:41;11.30;99.90
11925;DHT22;6022;48.768;18.608;2024-02-26T08:55:10;11.20;99.90
11925;DHT22;6022;48.768;18.608;2024-02-26T08:57:40;10.80;99.90
11925;DHT22;6022;48.768;18.608;2024-02-26T09:00:09;11.00;99.90
11925;DHT22;6022;48.768;18.608;2024-02-26T09:02:38;11.10;99.90
11925;DHT22;6022;48.768;18.608;2024-02-26T09:05:07;11.10;99.90
11925;DHT22;6022;48.768;18.608;2024-02-26T09:07:35;11.00;99.90
11925;DHT22;6022;48.768;18.608;2024-02-26T09:10:05;11.20;99.90
11925;DHT22;6022;48.768;18.608;2024-02-26T09:12:37;11.30;99.90
11925;DHT22;6022;48.768;18.608;2024-02-26T09:15:07;11.30;99.90
11925;DHT22;6022;48.768;18.608;2024-02-26T09:17:36;11.50;99.90
11925;DHT22;6022;48.768;18.608;2024-02-26T09:20:04;11.30;99.90
11925;DHT22;6022;48.768;18.608;2024-02-26T09:22:40;11.30;99.90
11925;DHT22;6022;48.768;18.608;2024-02-26T09:25:10;11.80;99.90
11925;DHT22;6022;48.768;18.608;2024-02-26T09:27:43;11.70;99.90
11925;DHT22;6022;48.768;18.608;2024-02-26T09:30:15;12.30;99.90
11925;DHT22;6022;48.768;18.608;2024-02-26T09:32:46;12.30;99.90
11925;DHT22;6022;48.768;18.608;2024-02-26T09:35:20;12.80;99.90
11925;DHT22;6022;48.768;18.608;2024-02-26T09:37:52;12.80;99.90
11925;DHT22;6022;48.768;18.608;2024-02-26T09:40:21;12.80;99.90
11925;DHT22;6022;48.768;18.608;2024-02-26T09:42:56;12.70;99.90
11925;DHT22;6022;48.768;18.608;2024-02-26T09:45:29;12.20;99.90
11925;DHT22;6022;48.768;18.608;2024-02-26T09:48:02;12.20;99.90
11925;DHT22;6022;48.768;18.608;2024-02-26T09:50:33;12.20;99.90
11925;DHT22;6022;48.768;18.608;2024-02-26T09:53:04;12.10;99.90
11925;DHT22;6022;48.768;18.608;2024-02-26T09:55:34;12.00;99.90
11925;DHT22;6022;48.768;18.608;2024-02-26T09:58:05;12.00;99.90
11925;DHT22;6022;48.768;18.608;2024-02-26T10:00:37;12.00;99.90
11925;DHT22;6022;48.768;18.608;2024-02-26T10:03:09;12.10;99.90
11925;DHT22;6022;48.768;18.608;2024-02-26T10:05:42;12.10;99.90
11925;DHT22;6022;48.768;18.608;2024-02-26T10:08:12;12.00;99.90
11925;DHT22;6022;48.768;18.608;2024-02-26T10:10:45;11.80;99.90
11925;DHT22;6022;48.768;18.608;2024-02-26T10:13:13;11.80;99.90
11925;DHT22;6022;48.768;18.608;2024-02-26T10:15:42;11.90;99.90
11925;DHT22;6022;48.768;18.608;2024-02-26T10:18:12;12.20;99.90
11925;DHT22;6022;48.768;18.608;2024-02-26T10:20:59;11.90;99.90
11925;DHT22;6022;48.768;18.608;2024-02-26T10:23:30;11.80;99.90
11925;DHT22;6022;48.768;18.608;2024-02-26T10:26:03;11.80;99.90
11925;DHT22;6022;48.768;18.608;2024-02-26T10:28:31;11.90;99.90
11925;DHT22;6022;48.768;18.608;2024-02-26T10:31:00;11.80;99.90
11925;DHT22;6022;48.768;18.608;2024-02-26T10:33:27;12.00;99.90
11925;DHT22;6022;48.768;18.608;2024-02-26T10:36:00;12.10;99.90
11925;DHT22;6022;48.768;18.608;2024-02-26T10:38:29;12.20;99.90
11925;DHT22;6022;48.768;18.608;2024-02-26T10:40:58;12.10;99.90
11925;DHT22;6022;48.768;18.608;2024-02-26T10:43:32;12.30;99.90
11925;DHT22;6022;48.768;18.608;2024-02-26T10:46:00;12.40;99.90
11925;DHT22;6022;48.768;18.608;2024-02-26T10:48:28;12.50;99.90
11925;DHT22;6022;48.768;18.608;2024-02-26T10:50:56;12.80;99.90
11925;DHT22;6022;48.768;18.608;2024-02-26T10:53:28;12.50;99.90
11925;DHT22;6022;48.768;18.608;2024-02-26T10:56:02;12.30;99.90
11925;DHT22;6022;48.768;18.608;2024-02-26T10:58:33;12.40;99.90
11925;DHT22;6022;48.768;18.608;2024-02-26T11:01:04;12.90;99.90
11925;DHT22;6022;48.768;18.608;2024-02-26T11:03:33;12.70;99.90
11925;DHT22;6022;48.768;18.608;2024-02-26T11:06:04;12.70;99.90
11925;DHT22;6022;48.768;18.608;2024-02-26T11:08:34;12.90;99.90
11925;DHT22;6022;48.768;18.608;2024-02-26T11:11:02;13.00;99.90
11925;DHT22;6022;48.768;18.608;2024-02-26T11:13:31;12.90;99.90
11925;DHT22;6022;48.768;18.608;2024-02-26T11:16:11;12.80;99.90
11925;DHT22;6022;48.768;18.608;2024-02-26T11:18:40;12.80;99.90
11925;DHT22;6022;48.768;18.608;2024-02-26T11:21:11;13.00;99.90
11925;DHT22;6022;48.768;18.608;2024-02-26T11:23:46;12.90;99.90
11925;DHT22;6022;48.768;18.608;2024-02-26T11:26:16;12.90;99.90
11925;DHT22;6022;48.768;18.608;2024-02-26T11:28:44;13.00;99.90
11925;DHT22;6022;48.768;18.608;2024-02-26T11:31:12;13.10;99.90
11925;DHT22;6022;48.768;18.608;2024-02-26T11:33:41;12.70;99.90
11925;DHT22;6022;48.768;18.608;2024-02-26T11:36:12;12.80;99.90
11925;DHT22;6022;48.768;18.608;2024-02-26T11:38:41;12.80;99.90
11925;DHT22;6022;48.768;18.608;2024-02-26T11:41:08;12.70;99.90
11925;DHT22;6022;48.768;18.608;2024-02-26T11:46:33;13.10;99.90
11925;DHT22;6022;48.768;18.608;2024-02-26T11:51:56;13.30;99.90
11925;DHT22;6022;48.768;18.608;2024-02-26T11:54:53;13.40;99.90
11925;DHT22;6022;48.768;18.608;2024-02-26T11:57:28;13.50;99.90
11925;DHT22;6022;48.768;18.608;2024-02-26T12:00:14;14.00;99.90
11925;DHT22;6022;48.768;18.608;2024-02-26T12:02:51;13.60;99.90
11925;DHT22;6022;48.768;18.608;2024-02-26T12:05:31;13.80;99.90
11925;DHT22;6022;48.768;18.608;2024-02-26T12:08:05;13.80;99.90
11925;DHT22;6022;48.768;18.608;2024-02-26T12:10:39;13.60;99.90
11925;DHT22;6022;48.768;18.608;2024-02-26T12:13:11;13.60;99.90
11925;DHT22;6022;48.768;18.608;2024-02-26T12:15:56;13.40;99.90
11925;DHT22;6022;48.768;18.608;2024-02-26T12:18:25;13.20;99.90
11925;DHT22;6022;48.768;18.608;2024-02-26T12:21:03;13.30;99.90
11925;DHT22;6022;48.768;18.608;2024-02-26T12:23:32;13.30;99.90
11925;DHT22;6022;48.768;18.608;2024-02-26T12:26:00;13.20;99.90
11925;DHT22;6022;48.768;18.608;2024-02-26T12:28:34;13.10;99.90
11925;DHT22;6022;48.768;18.608;2024-02-26T12:31:02;13.40;99.90
11925;DHT22;6022;48.768;18.608;2024-02-26T12:33:30;13.20;99.90
11925;DHT22;6022;48.768;18.608;2024-02-26T12:36:02;13.40;99.90
11925;DHT22;6022;48.768;18.608;2024-02-26T12:38:33;13.60;99.90
11925;DHT22;6022;48.768;18.608;2024-02-26T12:41:03;13.60;99.90
11925;DHT22;6022;48.768;18.608;2024-02-26T12:43:32;13.70;99.90
11925;DHT22;6022;48.768;18.608;2024-02-26T12:46:10;13.70;99.90
11925;DHT22;6022;48.768;18.608;2024-02-26T12:48:43;13.70;99.90
11925;DHT22;6022;48.768;18.608;2024-02-26T12:51:13;13.70;99.90
11925;DHT22;6022;48.768;18.608;2024-02-26T12:53:46;13.70;99.90
11925;DHT22;6022;48.768;18.608;2024-02-26T12:56:18;13.70;99.90
11925;DHT22;6022;48.768;18.608;2024-02-26T12:58:46;13.70;99.90
11925;DHT22;6022;48.768;18.608;2024-02-26T13:01:16;13.60;99.90
11925;DHT22;6022;48.768;18.608;2024-02-26T13:03:46;13.40;99.90
11925;DHT22;6022;48.768;18.608;2024-02-26T13:06:15;13.30;99.90
11925;DHT22;6022;48.768;18.608;2024-02-26T13:08:43;13.20;99.90
11925;DHT22;6022;48.768;18.608;2024-02-26T13:11:11;13.50;99.90
11925;DHT22;6022;48.768;18.608;2024-02-26T13:13:42;13.40;99.90
11925;DHT22;6022;48.768;18.608;2024-02-26T13:16:14;13.40;99.90
11925;DHT22;6022;48.768;18.608;2024-02-26T13:18:43;13.20;99.90
11925;DHT22;6022;48.768;18.608;2024-02-26T13:21:15;13.10;99.90
11925;DHT22;6022;48.768;18.608;2024-02-26T13:23:48;12.90;99.90
11925;DHT22;6022;48.768;18.608;2024-02-26T13:26:22;13.00;99.90
11925;DHT22;6022;48.768;18.608;2024-02-26T13:29:02;12.70;99.90
11925;DHT22;6022;48.768;18.608;2024-02-26T13:31:39;12.70;99.90
11925;DHT22;6022;48.768;18.608;2024-02-26T13:34:43;12.40;99.90
11925;DHT22;6022;48.768;18.608;2024-02-26T13:37:10;12.60;99.90
11925;DHT22;6022;48.768;18.608;2024-02-26T13:39:39;12.60;99.90
11925;DHT22;6022;48.768;18.608;2024-02-26T13:42:09;12.60;99.90
11925;DHT22;6022;48.768;18.608;2024-02-26T13:44:39;12.70;99.90
11925;DHT22;6022;48.768;18.608;2024-02-26T13:47:08;12.70;99.90
11925;DHT22;6022;48.768;18.608;2024-02-26T13:49:36;12.80;99.90
11925;DHT22;6022;48.768;18.608;2024-02-26T13:52:05;13.10;99.90
11925;DHT22;6022;48.768;18.608;2024-02-26T13:54:35;12.70;99.90
11925;DHT22;6022;48.768;18.608;2024-02-26T13:57:07;13.10;99.90
11925;DHT22;6022;48.768;18.608;2024-02-26T13:59:35;13.00;99.90
11925;DHT22;6022;48.768;18.608;2024-02-26T14:02:04;12.90;99.90
11925;DHT22;6022;48.768;18.608;2024-02-26T14:04:32;13.00;99.90
11925;DHT22;6022;48.768;18.608;2024-02-26T14:07:00;12.90;99.90
11925;DHT22;6022;48.768;18.608;2024-02-26T14:09:29;12.40;99.90
11925;DHT22;6022;48.768;18.608;2024-02-26T14:12:15;12.50;99.90
11925;DHT22;6022;48.768;18.608;2024-02-26T14:14:48;12.40;99.90
11925;DHT22;6022;48.768;18.608;2024-02-26T14:17:16;12.40;99.90
11925;DHT22;6022;48.768;18.608;2024-02-26T14:19:44;12.50;99.90
11925;DHT22;6022;48.768;18.608;2024-02-26T14:22:13;12.40;99.90
11925;DHT22;6022;48.768;18.608;2024-02-26T14:24:43;12.50;99.90
11925;DHT22;6022;48.768;18.608;2024-02-26T14:27:13;12.80;99.90
11925;DHT22;6022;48.768;18.608;2024-02-26T14:29:44;12.30;99.90
11925;DHT22;6022;48.768;18.608;2024-02-26T14:32:12;12.50;99.90
11925;DHT22;6022;48.768;18.608;2024-02-26T14:34:41;12.30;99.90
11925;DHT22;6022;48.768;18.608;2024-02-26T14:37:10;12.50;99.90
11925;DHT22;6022;48.768;18.608;2024-02-26T14:39:38;12.70;99.90
11925;DHT22;6022;48.768;18.608;2024-02-26T14:42:06;12.20;99.90
11925;DHT22;6022;48.768;18.608;2024-02-26T14:44:34;12.30;99.90
11925;DHT22;6022;48.768;18.608;2024-02-26T14:47:04;12.40;99.90
11925;DHT22;6022;48.768;18.608;2024-02-26T14:49:32;12.40;99.90
11925;DHT22;6022;48.768;18.608;2024-02-26T14:52:01;12.30;99.90
11925;DHT22;6022;48.768;18.608;2024-02-26T14:54:30;12.40;99.90
11925;DHT22;6022;48.768;18.608;2024-02-26T14:57:05;12.30;99.90
11925;DHT22;6022;48.768;18.608;2024-02-26T14:59:34;12.40;99.90
11925;DHT22;6022;48.768;18.608;2024-02-26T15:02:04;12.40;99.90
11925;DHT22;6022;48.768;18.608;2024-02-26T15:04:36;12.40;99.90
11925;DHT22;6022;48.768;18.608;2024-02-26T15:07:04;12.30;99.90
11925;DHT22;6022;48.768;18.608;2024-02-26T15:09:33;12.30;99.90
11925;DHT22;6022;48.768;18.608;2024-02-26T15:12:02;12.30;99.90
11925;DHT22;6022;48.768;18.608;2024-02-26T15:14:35;12.30;99.90
11925;DHT22;6022;48.768;18.608;2024-02-26T15:17:03;12.30;99.90
11925;DHT22;6022;48.768;18.608;2024-02-26T15:19:32;12.20;99.90
11925;DHT22;6022;48.768;18.608;2024-02-26T15:22:01;12.00;99.90
11925;DHT22;6022;48.768;18.608;2024-02-26T15:24:29;12.10;99.90
11925;DHT22;6022;48.768;18.608;2024-02-26T15:26:57;12.30;99.90
11925;DHT22;6022;48.768;18.608;2024-02-26T15:29:25;12.30;99.90
11925;DHT22;6022;48.768;18.608;2024-02-26T15:31:53;12.10;99.90
11925;DHT22;6022;48.768;18.608;2024-02-26T15:34:21;12.30;99.90
11925;DHT22;6022;48.768;18.608;2024-02-26T15:36:49;12.30;99.90
11925;DHT22;6022;48.768;18.608;2024-02-26T15:39:17;12.10;99.90
11925;DHT22;6022;48.768;18.608;2024-02-26T15:41:46;12.20;99.90
11925;DHT22;6022;48.768;18.608;2024-02-26T15:44:14;12.20;99.90
11925;DHT22;6022;48.768;18.608;2024-02-26T15:46:42;12.00;99.90
11925;DHT22;6022;48.768;18.608;2024-02-26T15:49:10;12.20;99.90
11925;DHT22;6022;48.768;18.608;2024-02-26T15:51:42;12.10;99.90
11925;DHT22;6022;48.768;18.608;2024-02-26T15:54:10;12.10;99.90
11925;DHT22;6022;48.768;18.608;2024-02-26T15:56:41;12.00;99.90
11925;DHT22;6022;48.768;18.608;2024-02-26T15:59:10;12.10;99.90
11925;DHT22;6022;48.768;18.608;2024-02-26T16:01:38;12.10;99.90
11925;DHT22;6022;48.768;18.608;2024-02-26T16:04:06;12.10;99.90
11925;DHT22;6022;48.768;18.608;2024-02-26T16:06:47;12.00;99.90
11925;DHT22;6022;48.768;18.608;2024-02-26T16:09:17;12.10;99.90
11925;DHT22;6022;48.768;18.608;2024-02-26T16:11:46;12.00;99.90
11925;DHT22;6022;48.768;18.608;2024-02-26T16:17:24;11.90;99.90